Time;durP1;ratioP1;P1;durP2;ratioP2;P2;SDS_P1;SDS_P2;PMS_P1;PMS_P2;Temp;Humidity;BMP_temperature;BMP_pressure;BME280_temperature;BME280_humidity;BME280_pressure;Samples;Min_cycle;Max_cycle;Signal;HPM_P1;HPM_P2
2023/09/06 00:02:09;;;;;;;6.32;5.32;;;17.90;99.90;;;;;;4984298;28;20034;-85
2023/09/06 00:04:35;;;;;;;6.82;5.55;;;17.90;99.90;;;;;;4981402;28;20027;-84
2023/09/06 00:07:00;;;;;;;5.78;4.80;;;17.90;99.90;;;;;;4975020;28;20150;-84
2023/09/06 00:09:26;;;;;;;5.97;5.38;;;17.90;99.90;;;;;;4981283;28;20061;-84
2023/09/06 00:11:52;;;;;;;5.88;5.28;;;17.90;99.90;;;;;;4984715;28;20034;-84
2023/09/06 00:14:19;;;;;;;5.85;5.35;;;17.90;99.90;;;;;;4984844;28;20110;-84
2023/09/06 00:16:46;;;;;;;5.68;4.85;;;17.90;99.90;;;;;;4974467;28;20678;-84
2023/09/06 00:19:14;;;;;;;4.93;4.43;;;17.90;99.90;;;;;;4977141;28;20334;-85
2023/09/06 00:21:41;;;;;;;6.05;5.47;;;17.90;99.90;;;;;;4971491;28;20028;-84
2023/09/06 00:24:09;;;;;;;6.07;5.15;;;17.80;99.90;;;;;;4994800;28;20061;-85
2023/09/06 00:26:35;;;;;;;5.22;4.65;;;17.80;99.90;;;;;;4978012;28;20023;-85
2023/09/06 00:29:00;;;;;;;6.13;5.50;;;17.80;99.90;;;;;;4969925;28;20080;-84
2023/09/06 00:31:26;;;;;;;6.07;5.47;;;17.80;99.90;;;;;;4980123;28;20130;-85
2023/09/06 00:33:51;;;;;;;6.43;5.82;;;17.80;99.90;;;;;;4977793;28;20026;-84
2023/09/06 00:36:17;;;;;;;6.47;5.88;;;17.70;99.90;;;;;;4980123;28;20390;-84
2023/09/06 00:38:42;;;;;;;5.65;5.15;;;17.70;99.90;;;;;;4980170;28;20521;-85
2023/09/06 00:41:09;;;;;;;5.43;4.93;;;17.70;99.90;;;;;;4980110;28;20022;-84
2023/09/06 00:43:35;;;;;;;5.85;5.28;;;17.70;99.90;;;;;;4977691;28;20031;-84
2023/09/06 00:46:06;;;;;;;5.68;5.05;;;17.60;99.90;;;;;;4968938;28;20019;-84
2023/09/06 00:48:33;;;;;;;6.72;5.45;;;17.50;99.90;;;;;;4975586;28;20035;-84
2023/09/06 00:50:59;;;;;;;5.57;5.07;;;17.50;99.90;;;;;;4989614;28;20027;-85
2023/09/06 00:53:25;;;;;;;5.55;5.05;;;17.40;99.90;;;;;;4970266;28;20536;-85
2023/09/06 00:55:51;;;;;;;6.78;6.15;;;17.40;99.90;;;;;;4987500;28;20056;-83
2023/09/06 00:58:19;;;;;;;7.25;5.10;;;17.30;99.90;;;;;;4970455;28;20025;-84
2023/09/06 01:00:49;;;;;;;5.72;5.22;;;17.30;99.90;;;;;;4969587;28;20034;-85
2023/09/06 01:03:16;;;;;;;5.90;5.38;;;17.20;99.90;;;;;;4977609;28;20029;-84
2023/09/06 01:06:00;;;;;;;6.57;5.97;;;17.20;99.90;;;;;;4973581;28;20035;-84
2023/09/06 01:08:33;;;;;;;6.22;5.70;;;17.10;99.90;;;;;;4974675;28;20084;-85
2023/09/06 01:11:18;;;;;;;6.63;6.03;;;17.10;99.90;;;;;;4978705;28;20029;-85
2023/09/06 01:13:45;;;;;;;7.40;6.25;;;17.00;99.90;;;;;;4977801;28;20043;-84
2023/09/06 01:16:12;;;;;;;6.38;5.75;;;17.00;99.90;;;;;;4972729;28;20425;-84
2023/09/06 01:18:37;;;;;;;6.05;5.53;;;17.00;99.90;;;;;;4980015;28;20030;-85
2023/09/06 01:21:09;;;;;;;6.70;5.47;;;16.90;99.90;;;;;;4983189;28;20022;-85
2023/09/06 01:23:38;;;;;;;7.13;5.72;;;16.90;99.90;;;;;;4982469;28;20050;-84
2023/09/06 01:26:05;;;;;;;6.63;5.88;;;16.90;99.90;;;;;;4984771;28;20426;-85
2023/09/06 01:28:31;;;;;;;6.35;5.72;;;16.90;99.90;;;;;;4975727;28;20037;-84
2023/09/06 01:31:01;;;;;;;5.68;5.18;;;16.90;99.90;;;;;;4979321;28;20118;-84
2023/09/06 01:33:30;;;;;;;5.90;5.30;;;16.80;99.90;;;;;;4982927;28;20177;-85
2023/09/06 01:35:57;;;;;;;6.40;5.80;;;16.80;99.90;;;;;;4976225;28;20022;-84
2023/09/06 01:38:23;;;;;;;5.70;5.22;;;16.80;99.90;;;;;;4984042;28;20448;-85
2023/09/06 01:40:49;;;;;;;7.40;5.95;;;16.70;99.90;;;;;;4979346;28;20054;-85
2023/09/06 01:43:14;;;;;;;6.15;5.55;;;16.70;99.90;;;;;;4973554;28;20459;-85
2023/09/06 01:45:50;;;;;;;5.47;4.97;;;16.70;99.90;;;;;;4974935;28;20110;-84
2023/09/06 01:48:16;;;;;;;6.03;5.43;;;16.70;99.90;;;;;;4981127;28;20035;-84
2023/09/06 01:50:42;;;;;;;6.53;5.82;;;16.60;99.90;;;;;;4972322;28;20057;-84
2023/09/06 01:53:08;;;;;;;7.85;5.53;;;16.60;99.90;;;;;;4974926;28;20387;-84
2023/09/06 01:55:33;;;;;;;5.75;4.78;;;16.60;99.90;;;;;;4977767;28;20035;-85
2023/09/06 01:57:59;;;;;;;7.97;5.30;;;16.50;99.90;;;;;;4990424;28;20485;-84
2023/09/06 02:00:28;;;;;;;5.50;5.00;;;16.50;99.90;;;;;;4977796;28;20446;-85
2023/09/06 02:02:57;;;;;;;5.78;5.18;;;16.50;99.90;;;;;;4977851;28;20037;-85
2023/09/06 02:05:22;;;;;;;5.95;5.45;;;16.40;99.90;;;;;;4976363;28;20470;-84
2023/09/06 02:07:49;;;;;;;5.65;5.10;;;16.40;99.90;;;;;;4979374;28;20037;-84
2023/09/06 02:10:14;;;;;;;6.97;5.47;;;16.40;99.90;;;;;;4979732;28;20030;-84
2023/09/06 02:12:40;;;;;;;5.70;5.20;;;16.40;99.90;;;;;;4977568;28;20077;-85
2023/09/06 02:15:07;;;;;;;5.72;5.13;;;16.40;99.90;;;;;;4979223;28;20029;-85
2023/09/06 02:17:33;;;;;;;13.55;5.95;;;16.30;99.90;;;;;;4972717;28;20113;-83
2023/09/06 02:22:48;;;;;;;7.25;6.25;;;16.20;99.90;;;;;;4981202;28;20041;-84
2023/09/06 02:25:16;;;;;;;5.70;5.20;;;16.10;99.90;;;;;;4981561;28;20048;-84
2023/09/06 02:27:41;;;;;;;6.13;5.53;;;16.10;99.90;;;;;;4972874;28;20113;-85
2023/09/06 02:30:08;;;;;;;4.97;4.47;;;16.10;99.90;;;;;;4984098;28;20117;-84
2023/09/06 02:32:34;;;;;;;4.97;4.53;;;16.10;99.90;;;;;;4972272;28;20026;-84
2023/09/06 02:35:00;;;;;;;6.38;5.78;;;16.10;99.90;;;;;;4975284;28;20042;-84
2023/09/06 02:37:26;;;;;;;6.93;6.22;;;16.10;99.90;;;;;;4978053;28;20011;-85
2023/09/06 02:39:54;;;;;;;6.50;5.90;;;16.10;99.90;;;;;;4971289;28;20038;-85
2023/09/06 02:42:20;;;;;;;6.10;5.50;;;16.10;99.90;;;;;;4984273;28;20027;-84
2023/09/06 02:44:46;;;;;;;5.32;4.88;;;16.00;99.90;;;;;;4972314;28;20093;-84
2023/09/06 02:47:15;;;;;;;7.28;5.75;;;16.00;99.90;;;;;;4973261;28;20494;-84
2023/09/06 02:49:43;;;;;;;6.85;5.55;;;16.00;99.90;;;;;;4977352;28;20030;-84
2023/09/06 02:52:20;;;;;;;6.00;5.50;;;16.00;99.90;;;;;;4970577;28;20437;-84
2023/09/06 02:54:47;;;;;;;5.85;5.35;;;16.00;99.90;;;;;;4972419;28;20105;-85
2023/09/06 02:57:14;;;;;;;5.43;4.90;;;16.00;99.90;;;;;;4981969;28;20027;-85
2023/09/06 02:59:39;;;;;;;6.32;5.72;;;15.90;99.90;;;;;;4967342;28;20073;-83
2023/09/06 03:02:05;;;;;;;5.28;4.82;;;15.90;99.90;;;;;;4968840;28;20809;-84
2023/09/06 03:04:37;;;;;;;6.10;5.50;;;15.90;99.90;;;;;;4974707;28;20363;-84
2023/09/06 03:07:07;;;;;;;5.85;5.25;;;15.90;99.90;;;;;;4979551;28;20425;-85
2023/09/06 03:09:38;;;;;;;7.18;6.47;;;15.90;99.90;;;;;;4977135;28;20047;-84
2023/09/06 03:12:11;;;;;;;5.32;4.82;;;15.90;99.90;;;;;;4976653;28;20031;-83
2023/09/06 03:14:44;;;;;;;7.45;6.47;;;15.80;99.90;;;;;;4978516;28;20026;-84
2023/09/06 03:17:18;;;;;;;6.78;6.18;;;15.80;99.90;;;;;;4976145;28;20053;-84
2023/09/06 03:19:48;;;;;;;5.90;5.40;;;15.80;99.90;;;;;;4975083;28;20077;-84
2023/09/06 03:22:15;;;;;;;7.75;5.95;;;15.70;99.90;;;;;;4977631;28;20030;-85
2023/09/06 03:24:43;;;;;;;6.75;6.15;;;15.70;99.90;;;;;;4977351;28;20532;-84
2023/09/06 03:27:10;;;;;;;6.18;5.57;;;15.70;99.90;;;;;;4981044;28;20041;-84
2023/09/06 03:29:38;;;;;;;6.22;5.63;;;15.70;99.90;;;;;;4983135;28;20069;-83
2023/09/06 03:32:08;;;;;;;7.43;6.63;;;15.70;99.90;;;;;;4978220;28;20049;-84
2023/09/06 03:34:37;;;;;;;7.25;6.55;;;15.70;99.90;;;;;;4977938;28;20030;-84
2023/09/06 03:37:08;;;;;;;6.90;6.20;;;15.70;99.90;;;;;;4972208;28;20111;-85
2023/09/06 03:39:43;;;;;;;6.15;5.55;;;15.70;99.90;;;;;;4971526;28;20118;-84
2023/09/06 03:42:09;;;;;;;7.45;6.57;;;15.70;99.90;;;;;;4978690;28;20023;-84
2023/09/06 03:44:35;;;;;;;7.93;7.13;;;15.60;99.90;;;;;;4979921;28;20406;-84
2023/09/06 03:47:05;;;;;;;9.40;8.43;;;15.60;99.90;;;;;;4984674;28;20023;-84
2023/09/06 03:49:32;;;;;;;8.93;8.02;;;15.60;99.90;;;;;;4981270;28;20022;-84
2023/09/06 03:51:58;;;;;;;9.63;8.38;;;15.60;99.90;;;;;;4981796;28;20662;-84
2023/09/06 03:54:24;;;;;;;8.93;8.10;;;15.60;99.90;;;;;;4981991;28;20490;-85
2023/09/06 03:56:50;;;;;;;8.43;7.63;;;15.50;99.90;;;;;;4988964;28;20038;-84
2023/09/06 03:59:16;;;;;;;8.93;8.02;;;15.50;99.90;;;;;;4975069;28;20019;-84
2023/09/06 04:01:43;;;;;;;8.82;8.02;;;15.50;99.90;;;;;;4987750;28;20030;-83
2023/09/06 04:04:09;;;;;;;9.90;8.98;;;15.50;99.90;;;;;;4985209;28;20046;-84
2023/09/06 04:06:35;;;;;;;9.63;8.75;;;15.40;99.90;;;;;;4973541;28;20446;-83
2023/09/06 04:09:01;;;;;;;9.55;7.97;;;15.50;99.90;;;;;;4974538;28;20018;-85
2023/09/06 04:11:26;;;;;;;9.48;7.72;;;15.40;99.90;;;;;;4987080;28;20034;-84
2023/09/06 04:13:55;;;;;;;9.85;8.85;;;15.40;99.90;;;;;;4982803;28;20114;-84
2023/09/06 04:16:22;;;;;;;9.25;8.23;;;15.30;99.90;;;;;;4978389;28;20023;-85
2023/09/06 04:18:48;;;;;;;9.07;8.23;;;15.40;99.90;;;;;;4988568;28;20011;-83
2023/09/06 04:21:13;;;;;;;9.88;8.88;;;15.30;99.90;;;;;;4977627;28;20346;-84
2023/09/06 04:23:40;;;;;;;9.85;8.95;;;15.40;99.90;;;;;;4983085;28;20030;-84
2023/09/06 04:26:05;;;;;;;8.98;8.07;;;15.40;99.90;;;;;;4985315;28;20018;-85
2023/09/06 04:28:31;;;;;;;9.13;8.23;;;15.40;99.90;;;;;;4984379;28;20031;-84
2023/09/06 04:30:58;;;;;;;9.02;7.80;;;15.40;99.90;;;;;;4985089;28;20035;-84
2023/09/06 04:33:24;;;;;;;10.95;9.02;;;15.40;99.90;;;;;;4977406;28;20033;-85
2023/09/06 04:35:50;;;;;;;10.05;8.30;;;15.40;99.90;;;;;;4967125;28;20548;-85
2023/09/06 04:38:18;;;;;;;11.20;9.68;;;15.40;99.90;;;;;;4969212;28;20110;-85
2023/09/06 04:40:44;;;;;;;10.52;9.40;;;15.40;99.90;;;;;;4978653;28;20026;-84
2023/09/06 04:43:11;;;;;;;11.85;10.05;;;15.40;99.90;;;;;;4985075;28;20030;-85
2023/09/06 04:45:40;;;;;;;12.23;11.02;;;15.40;99.90;;;;;;4974991;28;20042;-84
2023/09/06 04:48:10;;;;;;;11.98;10.88;;;15.40;99.90;;;;;;4983073;28;20040;-85
2023/09/06 04:50:39;;;;;;;12.38;11.10;;;15.40;99.90;;;;;;4974789;28;20081;-84
2023/09/06 04:53:07;;;;;;;14.02;11.45;;;15.40;99.90;;;;;;4980604;28;20076;-85
2023/09/06 04:55:35;;;;;;;11.77;10.63;;;15.40;99.90;;;;;;4981905;28;20034;-84
2023/09/06 04:58:01;;;;;;;13.75;11.35;;;15.40;99.90;;;;;;4975117;28;20050;-84
2023/09/06 05:00:32;;;;;;;13.45;12.07;;;15.40;99.90;;;;;;4980679;28;20046;-85
2023/09/06 05:02:58;;;;;;;13.10;11.88;;;15.40;99.90;;;;;;4978802;28;20031;-85
2023/09/06 05:05:24;;;;;;;13.48;12.02;;;15.40;99.90;;;;;;4985261;28;20097;-85
2023/09/06 05:07:53;;;;;;;12.52;11.27;;;15.50;99.90;;;;;;4979209;28;20121;-86
2023/09/06 05:10:18;;;;;;;12.00;10.90;;;15.50;99.90;;;;;;4970128;28;20031;-85
2023/09/06 05:12:45;;;;;;;12.80;11.57;;;15.50;99.90;;;;;;4988085;28;20552;-85
2023/09/06 05:15:12;;;;;;;12.30;11.00;;;15.50;99.90;;;;;;4975499;28;20482;-85
2023/09/06 05:17:39;;;;;;;11.40;10.20;;;15.50;99.90;;;;;;4968515;28;20111;-85
2023/09/06 05:20:33;;;;;;;11.75;10.55;;;15.50;99.90;;;;;;4977965;28;20029;-85
2023/09/06 05:23:04;;;;;;;13.38;10.90;;;15.50;99.90;;;;;;4957468;28;20023;-85
2023/09/06 05:25:30;;;;;;;13.02;11.60;;;15.50;99.90;;;;;;4974567;28;20027;-84
2023/09/06 05:28:10;;;;;;;13.02;11.40;;;15.60;99.90;;;;;;4973178;28;20085;-84
2023/09/06 05:30:46;;;;;;;12.38;11.18;;;15.60;99.90;;;;;;4983603;28;20086;-86
2023/09/06 05:33:13;;;;;;;12.63;11.32;;;15.60;99.90;;;;;;4969914;28;20019;-85
2023/09/06 05:35:41;;;;;;;12.15;10.85;;;15.60;99.90;;;;;;4966800;28;20043;-85
2023/09/06 05:38:09;;;;;;;11.98;10.52;;;15.70;99.90;;;;;;4974333;28;20074;-85
2023/09/06 05:40:35;;;;;;;13.25;10.95;;;15.70;99.90;;;;;;4972250;28;20031;-85
2023/09/06 05:43:01;;;;;;;10.65;9.57;;;15.70;99.90;;;;;;4974170;28;20101;-85
2023/09/06 05:45:27;;;;;;;12.70;10.77;;;15.70;99.90;;;;;;4982363;28;20035;-85
2023/09/06 05:47:53;;;;;;;10.88;9.88;;;15.70;99.90;;;;;;4979394;28;20033;-85
2023/09/06 05:50:19;;;;;;;10.60;9.50;;;15.80;99.90;;;;;;4979591;28;20054;-85
2023/09/06 05:52:44;;;;;;;8.25;7.45;;;15.80;99.90;;;;;;4968109;28;20038;-85
2023/09/06 05:55:10;;;;;;;8.88;7.97;;;15.80;99.90;;;;;;4975920;28;20514;-85
2023/09/06 05:57:37;;;;;;;9.20;8.30;;;15.80;99.90;;;;;;4979052;28;20026;-85
2023/09/06 06:00:04;;;;;;;10.55;8.57;;;15.90;99.90;;;;;;4977396;28;20123;-85
2023/09/06 06:02:31;;;;;;;9.75;8.85;;;15.90;99.90;;;;;;4981657;28;20245;-85
2023/09/06 06:04:57;;;;;;;8.73;7.82;;;16.00;99.90;;;;;;4986354;28;20056;-86
2023/09/06 06:07:23;;;;;;;9.18;7.65;;;16.10;99.90;;;;;;4978212;28;20058;-85
2023/09/06 06:09:48;;;;;;;9.18;7.50;;;16.10;99.90;;;;;;4983052;28;20030;-86
2023/09/06 06:12:15;;;;;;;9.52;8.60;;;16.20;99.90;;;;;;4978035;28;20089;-88
2023/09/06 06:14:41;;;;;;;9.25;8.30;;;16.30;99.90;;;;;;4990724;28;20111;-85
2023/09/06 06:17:09;;;;;;;8.43;7.63;;;16.30;99.90;;;;;;4989693;28;20018;-85
2023/09/06 06:19:37;;;;;;;12.20;8.85;;;16.40;99.90;;;;;;4979849;28;20062;-86
2023/09/06 06:22:03;;;;;;;10.38;8.02;;;16.40;99.90;;;;;;4964216;28;20565;-86
2023/09/06 06:24:35;;;;;;;8.05;7.25;;;16.50;99.90;;;;;;4981944;28;20054;-87
2023/09/06 06:27:01;;;;;;;9.20;8.30;;;16.50;99.90;;;;;;4971528;28;20109;-86
2023/09/06 06:29:26;;;;;;;9.43;8.30;;;16.60;99.90;;;;;;4970887;28;20570;-88
2023/09/06 06:31:52;;;;;;;9.77;8.00;;;16.70;99.90;;;;;;4977789;28;20030;-85
2023/09/06 06:34:18;;;;;;;10.93;8.55;;;16.70;99.90;;;;;;4972210;28;20114;-87
2023/09/06 06:36:47;;;;;;;8.30;7.53;;;16.80;99.90;;;;;;4981013;28;20031;-87
2023/09/06 06:39:17;;;;;;;8.23;7.53;;;16.90;99.90;;;;;;4983141;28;20025;-87
2023/09/06 06:41:43;;;;;;;10.38;7.78;;;17.00;99.90;;;;;;4974693;28;20027;-87
2023/09/06 06:44:09;;;;;;;8.18;7.10;;;17.00;99.90;;;;;;4978140;28;20041;-87
2023/09/06 06:46:37;;;;;;;7.65;6.53;;;17.10;99.90;;;;;;4978474;28;20035;-87
2023/09/06 06:49:07;;;;;;;7.88;7.00;;;17.20;99.90;;;;;;4976028;28;20176;-87
2023/09/06 06:51:41;;;;;;;8.00;6.60;;;17.30;99.90;;;;;;4985890;28;20027;-85
2023/09/06 06:54:14;;;;;;;6.53;5.93;;;17.40;99.90;;;;;;4970531;28;20452;-86
2023/09/06 06:56:40;;;;;;;7.47;6.38;;;17.50;99.90;;;;;;4983891;28;20084;-85
2023/09/06 06:59:07;;;;;;;6.78;6.10;;;17.60;99.90;;;;;;4973309;28;20106;-84
2023/09/06 07:01:33;;;;;;;14.57;7.07;;;17.60;99.90;;;;;;4984898;28;20045;-86
2023/09/06 07:04:00;;;;;;;11.65;6.13;;;17.80;99.90;;;;;;4983994;28;20025;-86
2023/09/06 07:06:27;;;;;;;8.48;5.85;;;17.90;99.90;;;;;;4965805;28;20040;-86
2023/09/06 07:08:54;;;;;;;12.30;6.50;;;18.00;99.90;;;;;;4974337;28;20433;-84
2023/09/06 07:11:20;;;;;;;6.05;5.10;;;18.20;99.90;;;;;;4976032;28;20031;-86
2023/09/06 07:13:47;;;;;;;6.75;4.75;;;18.30;99.90;;;;;;4984240;28;20505;-86
2023/09/06 07:16:15;;;;;;;5.03;4.53;;;18.40;99.90;;;;;;4974374;28;20027;-86
2023/09/06 07:18:41;;;;;;;4.93;4.43;;;18.60;99.90;;;;;;4977936;28;20034;-87
2023/09/06 07:21:06;;;;;;;5.07;4.53;;;18.80;99.90;;;;;;4972986;28;20125;-86
2023/09/06 07:23:32;;;;;;;4.95;4.45;;;19.00;99.90;;;;;;4981858;28;20034;-87
2023/09/06 07:25:58;;;;;;;5.30;4.38;;;19.20;99.90;;;;;;4978234;28;20288;-86
2023/09/06 07:28:24;;;;;;;4.25;3.85;;;19.40;99.90;;;;;;4976512;28;20561;-86
2023/09/06 07:30:49;;;;;;;5.53;3.53;;;19.60;99.90;;;;;;4963227;28;20106;-86
2023/09/06 07:33:15;;;;;;;3.88;3.58;;;19.80;99.90;;;;;;4982132;28;20061;-85
2023/09/06 07:35:42;;;;;;;5.75;3.30;;;20.00;99.90;;;;;;4981556;28;20041;-86
2023/09/06 07:38:08;;;;;;;3.85;3.42;;;20.20;99.90;;;;;;4985866;28;20054;-86
2023/09/06 07:40:33;;;;;;;3.55;3.25;;;20.40;99.90;;;;;;4978732;28;20027;-86
2023/09/06 07:42:59;;;;;;;5.18;3.45;;;20.60;99.90;;;;;;4980000;28;20073;-86
2023/09/06 07:45:25;;;;;;;3.38;3.08;;;20.80;99.90;;;;;;4975008;28;20062;-86
2023/09/06 07:47:51;;;;;;;4.97;3.63;;;21.00;99.90;;;;;;4979063;28;20433;-86
2023/09/06 07:50:17;;;;;;;3.38;3.05;;;21.20;99.90;;;;;;4983776;28;20033;-83
2023/09/06 07:52:42;;;;;;;5.75;3.47;;;21.30;99.90;;;;;;4988774;28;20026;-84
2023/09/06 07:55:08;;;;;;;2.65;2.45;;;21.50;99.90;;;;;;4975207;28;20031;-83
2023/09/06 07:57:34;;;;;;;3.22;2.92;;;21.60;99.90;;;;;;4983167;28;20154;-83
2023/09/06 08:00:00;;;;;;;3.35;2.75;;;21.80;99.90;;;;;;4980543;28;20466;-84
2023/09/06 08:02:25;;;;;;;6.07;2.95;;;21.90;99.90;;;;;;4971570;28;20035;-83
2023/09/06 08:04:51;;;;;;;5.50;2.65;;;22.10;99.90;;;;;;4983462;28;20394;-83
2023/09/06 08:07:17;;;;;;;4.05;2.63;;;22.20;99.90;;;;;;4983483;28;20493;-83
2023/09/06 08:09:43;;;;;;;3.85;2.88;;;22.30;99.90;;;;;;4975339;28;20023;-83
2023/09/06 08:12:09;;;;;;;3.20;2.90;;;22.40;99.90;;;;;;4984007;28;20515;-83
2023/09/06 08:14:35;;;;;;;3.15;2.65;;;22.60;99.90;;;;;;4977352;28;20026;-83
2023/09/06 08:17:01;;;;;;;2.58;2.38;;;22.70;99.90;;;;;;4983679;28;20086;-84
2023/09/06 08:19:26;;;;;;;5.28;2.45;;;22.80;99.90;;;;;;4985509;28;20117;-84
2023/09/06 08:21:52;;;;;;;2.25;2.05;;;22.90;99.90;;;;;;4979302;28;20029;-84
2023/09/06 08:24:18;;;;;;;4.10;2.28;;;23.00;99.90;;;;;;4985789;28;20049;-83
2023/09/06 08:26:45;;;;;;;3.05;2.45;;;23.00;99.90;;;;;;4979161;28;20126;-84
2023/09/06 08:29:11;;;;;;;4.68;2.13;;;23.10;99.90;;;;;;4986570;28;20081;-84
2023/09/06 08:31:37;;;;;;;3.97;2.00;;;23.10;99.90;;;;;;4985741;28;20079;-85
2023/09/06 08:34:02;;;;;;;2.28;2.08;;;23.20;99.90;;;;;;4986304;28;20022;-84
2023/09/06 08:36:28;;;;;;;3.13;1.80;;;23.30;99.90;;;;;;4977434;28;20039;-84
2023/09/06 08:38:53;;;;;;;2.75;2.00;;;23.30;99.90;;;;;;4974004;28;20046;-83
2023/09/06 08:41:20;;;;;;;2.70;2.00;;;23.40;99.90;;;;;;4976003;28;20034;-84
2023/09/06 08:43:46;;;;;;;1.85;1.75;;;23.50;99.90;;;;;;4984728;28;20041;-84
2023/09/06 08:46:18;;;;;;;3.95;1.92;;;23.50;99.90;;;;;;4985406;28;20486;-84
2023/09/06 08:48:46;;;;;;;2.20;1.65;;;23.60;99.90;;;;;;4978552;28;20046;-84
2023/09/06 08:51:13;;;;;;;3.35;1.80;;;23.60;99.90;;;;;;4987154;28;20030;-83
2023/09/06 08:53:42;;;;;;;2.70;2.33;;;23.70;99.90;;;;;;4981757;28;20027;-83
2023/09/06 08:56:08;;;;;;;2.53;2.08;;;23.70;99.90;;;;;;4987956;28;20415;-84
2023/09/06 08:58:34;;;;;;;4.20;2.70;;;23.80;99.90;;;;;;4986637;28;20038;-85
2023/09/06 09:01:01;;;;;;;13.27;3.60;;;23.80;99.90;;;;;;4970671;28;20039;-83
2023/09/06 09:03:26;;;;;;;29.05;7.18;;;23.90;99.90;;;;;;4980149;28;20027;-85
2023/09/06 09:05:59;;;;;;;5.53;2.35;;;23.90;99.90;;;;;;4988018;28;20050;-84
2023/09/06 09:08:27;;;;;;;25.15;6.60;;;24.00;99.90;;;;;;4976894;28;20142;-84
2023/09/06 09:11:18;;;;;;;7.60;2.80;;;24.10;99.90;;;;;;4973943;28;20019;-84
2023/09/06 09:13:45;;;;;;;2.42;1.90;;;24.10;99.90;;;;;;4984744;28;20029;-85
2023/09/06 09:16:13;;;;;;;3.38;1.77;;;24.10;99.90;;;;;;4983594;28;20031;-84
2023/09/06 09:18:40;;;;;;;1.83;1.60;;;24.20;99.90;;;;;;4983369;28;20021;-84
2023/09/06 09:21:13;;;;;;;2.15;1.95;;;24.20;99.90;;;;;;4984518;28;20046;-84
2023/09/06 09:23:47;;;;;;;1.52;1.30;;;24.30;99.90;;;;;;4979073;28;20548;-84
2023/09/06 09:26:13;;;;;;;1.33;1.23;;;24.30;99.90;;;;;;4984284;28;20442;-84
2023/09/06 09:28:42;;;;;;;1.25;1.15;;;24.30;99.90;;;;;;4982419;28;20030;-84
2023/09/06 09:31:14;;;;;;;1.58;1.48;;;24.40;99.90;;;;;;4972466;28;20118;-83
2023/09/06 09:33:43;;;;;;;2.42;1.38;;;24.50;99.90;;;;;;4988158;28;20038;-83
2023/09/06 09:36:10;;;;;;;1.50;1.25;;;24.50;99.90;;;;;;4984858;28;20464;-83
2023/09/06 09:38:39;;;;;;;1.85;1.20;;;24.50;99.90;;;;;;4970255;28;20023;-84
2023/09/06 09:41:06;;;;;;;1.27;1.20;;;24.60;99.90;;;;;;4988431;28;20018;-83
2023/09/06 09:43:32;;;;;;;2.40;1.10;;;24.60;99.90;;;;;;4981614;28;20018;-83
2023/09/06 09:45:58;;;;;;;1.40;1.30;;;24.70;99.90;;;;;;4990829;28;20018;-84
2023/09/06 09:48:31;;;;;;;1.20;1.10;;;24.70;99.90;;;;;;4985992;28;20080;-83
2023/09/06 09:51:00;;;;;;;3.47;1.88;;;24.80;99.90;;;;;;4976311;28;20023;-84
2023/09/06 09:53:28;;;;;;;2.65;1.38;;;24.80;99.90;;;;;;4983779;28;20022;-83
2023/09/06 09:55:55;;;;;;;1.08;1.05;;;24.90;99.90;;;;;;4972375;28;20123;-83
2023/09/06 09:58:21;;;;;;;3.42;0.95;;;24.90;99.90;;;;;;4976741;28;20485;-84
2023/09/06 10:00:50;;;;;;;3.40;1.40;;;25.00;99.90;;;;;;4972748;28;20035;-84
2023/09/06 10:03:16;;;;;;;2.17;1.38;;;25.00;99.90;;;;;;4975793;28;20023;-83
2023/09/06 10:05:42;;;;;;;1.80;1.60;;;25.10;99.90;;;;;;4983487;28;20046;-84
2023/09/06 10:08:09;;;;;;;1.10;1.10;;;25.20;99.90;;;;;;4981071;28;20035;-83
2023/09/06 10:10:40;;;;;;;1.85;1.02;;;25.20;99.90;;;;;;4980125;28;20026;-84
2023/09/06 10:13:09;;;;;;;1.20;1.10;;;25.30;99.90;;;;;;4976268;28;20027;-84
2023/09/06 10:15:35;;;;;;;2.17;1.30;;;25.30;99.90;;;;;;4975911;28;20035;-84
2023/09/06 10:18:01;;;;;;;1.20;1.10;;;25.30;99.90;;;;;;4980055;28;20024;-83
2023/09/06 10:20:30;;;;;;;1.08;1.00;;;25.30;99.90;;;;;;4971917;28;20041;-84
2023/09/06 10:22:57;;;;;;;2.47;1.30;;;25.40;99.90;;;;;;4981223;28;20081;-84
2023/09/06 10:25:25;;;;;;;1.15;1.10;;;25.40;99.90;;;;;;4979038;28;20770;-84
2023/09/06 10:27:53;;;;;;;1.05;1.00;;;25.50;99.90;;;;;;4972659;28;20027;-84
2023/09/06 10:30:46;;;;;;;0.93;0.90;;;25.60;99.90;;;;;;4970709;28;20019;-81
2023/09/06 10:33:36;;;;;;;1.23;0.98;;;25.60;99.90;;;;;;4973466;28;20042;-83
2023/09/06 10:36:16;;;;;;;1.50;0.88;;;25.70;99.90;;;;;;4969068;28;20026;-82
2023/09/06 10:39:06;;;;;;;1.60;1.05;;;25.70;99.90;;;;;;4996137;28;20019;-89
2023/09/06 10:41:32;;;;;;;1.58;0.77;;;25.80;99.90;;;;;;4993074;28;20014;-88
2023/09/06 10:43:57;;;;;;;0.80;0.80;;;25.80;99.90;;;;;;4958330;28;20074;-87
2023/09/06 10:46:28;;;;;;;1.55;0.82;;;25.90;99.90;;;;;;4976252;28;20027;-87
2023/09/06 10:49:13;;;;;;;0.85;0.85;;;25.90;99.90;;;;;;4974044;28;20026;-86
2023/09/06 10:51:57;;;;;;;1.33;0.88;;;25.90;99.90;;;;;;4979767;28;20561;-88
2023/09/06 10:54:24;;;;;;;1.13;1.02;;;26.00;99.90;;;;;;4978790;28;20137;-87
2023/09/06 10:56:56;;;;;;;0.93;0.82;;;26.00;99.90;;;;;;4967724;28;20094;-87
2023/09/06 10:59:21;;;;;;;3.20;1.10;;;26.00;99.90;;;;;;4980434;28;20047;-87
2023/09/06 11:02:06;;;;;;;1.10;0.68;;;26.10;99.90;;;;;;4993422;28;20110;-87
2023/09/06 11:04:32;;;;;;;1.10;0.93;;;26.10;99.90;;;;;;4972477;28;20101;-85
2023/09/06 11:06:58;;;;;;;1.88;1.10;;;26.10;99.90;;;;;;4982047;28;20049;-84
2023/09/06 11:09:25;;;;;;;1.20;1.10;;;26.10;99.90;;;;;;4985800;28;20022;-84
2023/09/06 11:11:52;;;;;;;2.08;1.10;;;26.20;99.90;;;;;;4975028;28;20172;-84
2023/09/06 11:14:17;;;;;;;2.28;1.13;;;26.20;99.90;;;;;;4986374;28;20022;-83
2023/09/06 11:16:47;;;;;;;0.88;0.75;;;26.20;99.90;;;;;;4984540;28;20037;-84
2023/09/06 11:19:12;;;;;;;1.20;1.00;;;26.20;99.90;;;;;;4982195;28;20026;-83
2023/09/06 11:21:38;;;;;;;3.10;1.17;;;26.30;99.90;;;;;;4974626;28;20023;-84
2023/09/06 11:24:04;;;;;;;1.40;1.30;;;26.40;99.90;;;;;;4986752;28;20711;-84
2023/09/06 11:26:34;;;;;;;1.63;1.08;;;26.40;99.90;;;;;;4985860;28;20018;-84
2023/09/06 11:29:03;;;;;;;1.67;1.13;;;26.40;99.90;;;;;;4986569;28;20478;-82
2023/09/06 11:31:33;;;;;;;1.60;1.13;;;26.50;99.90;;;;;;4986200;28;20043;-84
2023/09/06 11:34:04;;;;;;;1.17;1.00;;;26.50;99.90;;;;;;4987605;28;20022;-83
2023/09/06 11:36:32;;;;;;;1.30;1.20;;;26.50;99.90;;;;;;4984925;28;20026;-83
2023/09/06 11:39:01;;;;;;;2.28;1.20;;;26.60;99.90;;;;;;4985902;28;20021;-83
2023/09/06 11:41:28;;;;;;;1.88;1.05;;;26.70;99.90;;;;;;4978139;28;20030;-84
2023/09/06 11:43:58;;;;;;;1.52;0.90;;;26.70;99.90;;;;;;4980225;28;20080;-84
2023/09/06 11:46:24;;;;;;;1.17;1.02;;;26.80;99.90;;;;;;4986983;28;20026;-85
2023/09/06 11:48:53;;;;;;;1.08;0.98;;;26.90;99.90;;;;;;4977991;28;20637;-86
2023/09/06 11:51:21;;;;;;;0.75;0.75;;;26.90;99.90;;;;;;4977392;28;20075;-87
2023/09/06 11:53:54;;;;;;;2.88;1.02;;;26.90;99.90;;;;;;4978817;28;20023;-88
2023/09/06 11:56:33;;;;;;;1.58;1.08;;;26.90;99.90;;;;;;4963239;28;20101;-85
2023/09/06 11:58:59;;;;;;;1.17;1.00;;;27.00;99.90;;;;;;4980892;28;20025;-86
2023/09/06 12:01:26;;;;;;;1.00;0.90;;;27.00;99.90;;;;;;4980209;28;20042;-87
2023/09/06 12:04:01;;;;;;;1.13;1.02;;;27.00;99.90;;;;;;4979704;28;20431;-86
2023/09/06 12:06:27;;;;;;;2.60;1.13;;;27.10;99.90;;;;;;4973059;28;20590;-86
2023/09/06 12:08:53;;;;;;;0.90;0.90;;;27.10;99.90;;;;;;4980590;28;20027;-87
2023/09/06 12:11:21;;;;;;;0.80;0.80;;;27.10;99.90;;;;;;4985819;28;20035;-87
2023/09/06 12:13:47;;;;;;;1.05;0.90;;;27.10;99.90;;;;;;4977983;28;20042;-87
2023/09/06 12:16:15;;;;;;;1.52;0.90;;;27.10;99.90;;;;;;4973728;28;20102;-87
2023/09/06 12:18:41;;;;;;;0.80;0.77;;;27.10;99.90;;;;;;4978395;28;20023;-86
2023/09/06 12:21:07;;;;;;;0.90;0.90;;;27.20;99.90;;;;;;4985889;28;20623;-87
2023/09/06 12:23:34;;;;;;;1.77;0.95;;;27.20;99.90;;;;;;4979812;28;20078;-87
2023/09/06 12:26:01;;;;;;;2.83;0.98;;;27.30;99.90;;;;;;4971707;28;20393;-87
2023/09/06 12:28:33;;;;;;;1.13;1.00;;;27.30;99.90;;;;;;4970352;28;20406;-87
2023/09/06 12:31:02;;;;;;;1.35;1.10;;;27.40;99.90;;;;;;4980846;28;20038;-86
2023/09/06 12:33:29;;;;;;;1.23;1.00;;;27.40;99.90;;;;;;4981212;28;20033;-88
2023/09/06 12:36:05;;;;;;;0.88;0.88;;;27.40;99.90;;;;;;4984502;28;20085;-86
2023/09/06 12:38:31;;;;;;;2.60;0.90;;;27.50;99.90;;;;;;4981349;28;20118;-87
2023/09/06 12:40:58;;;;;;;1.25;1.05;;;27.50;99.90;;;;;;4981871;28;20014;-87
2023/09/06 12:43:25;;;;;;;2.58;1.10;;;27.50;99.90;;;;;;4982481;28;20121;-87
2023/09/06 12:45:53;;;;;;;0.93;0.88;;;27.50;99.90;;;;;;4972672;28;20030;-86
2023/09/06 12:48:21;;;;;;;1.23;0.80;;;27.50;99.90;;;;;;4978045;28;20019;-87
2023/09/06 12:50:48;;;;;;;1.08;0.90;;;27.60;99.90;;;;;;4985959;28;20089;-87
2023/09/06 12:53:13;;;;;;;1.20;1.10;;;27.60;99.90;;;;;;4983599;28;20195;-87